Time;durP1;ratioP1;P1;durP2;ratioP2;P2;SDS_P1;SDS_P2;PMS_P1;PMS_P2;Temp;Humidity;BMP_temperature;BMP_pressure;BME280_temperature;BME280_humidity;BME280_pressure;Samples;Min_cycle;Max_cycle;Signal;HPM_P1;HPM_P2
2023/04/16 00:00:39;;;;;;;48.42;31.83;;;9.10;99.90;;;;;;4652597;28;9999927;-72
2023/04/16 00:03:05;;;;;;;48.97;33.33;;;9.10;99.90;;;;;;5000846;28;20057;-72
2023/04/16 00:05:30;;;;;;;51.22;32.67;;;9.10;99.90;;;;;;5008544;28;20049;-72
2023/04/16 00:07:56;;;;;;;47.13;31.95;;;9.10;99.90;;;;;;5001600;28;20485;-72
2023/04/16 00:10:21;;;;;;;51.13;32.47;;;9.10;99.90;;;;;;5002835;28;20132;-71
2023/04/16 00:12:47;;;;;;;49.17;34.15;;;9.40;99.90;;;;;;5008704;28;20030;-71
2023/04/16 00:15:13;;;;;;;51.00;32.47;;;9.10;99.90;;;;;;5004704;28;20109;-71
2023/04/16 00:17:38;;;;;;;48.38;32.38;;;9.10;99.90;;;;;;4997625;28;20072;-71
2023/04/16 00:20:05;;;;;;;48.72;33.78;;;9.10;99.90;;;;;;5004274;28;20036;-71
2023/04/16 00:22:31;;;;;;;48.28;32.38;;;9.10;99.90;;;;;;4999775;28;20026;-71
2023/04/16 00:24:56;;;;;;;48.38;33.05;;;9.10;99.90;;;;;;4999253;28;20148;-71
2023/04/16 00:27:22;;;;;;;46.55;31.52;;;9.10;99.90;;;;;;4997759;28;20116;-71
2023/04/16 00:29:47;;;;;;;42.95;31.27;;;9.40;99.90;;;;;;5005693;28;20026;-71
2023/04/16 00:32:13;;;;;;;45.42;30.75;;;9.10;99.90;;;;;;5006387;28;20488;-71
2023/04/16 00:34:39;;;;;;;47.08;32.83;;;9.10;99.90;;;;;;5001666;28;20048;-72
2023/04/16 00:37:04;;;;;;;47.58;31.30;;;8.80;99.90;;;;;;4996825;28;20405;-72
2023/04/16 00:39:30;;;;;;;46.30;31.05;;;9.10;99.90;;;;;;5003856;28;20588;-72
2023/04/16 00:41:56;;;;;;;46.60;30.52;;;9.10;99.90;;;;;;5002649;28;20034;-71
2023/04/16 00:44:21;;;;;;;46.13;30.55;;;9.10;99.90;;;;;;4999126;28;20027;-72
2023/04/16 00:46:47;;;;;;;49.15;31.17;;;8.80;99.90;;;;;;5004486;28;20038;-71
2023/04/16 00:49:13;;;;;;;44.75;30.38;;;9.00;99.90;;;;;;4993674;28;20034;-72
2023/04/16 00:51:39;;;;;;;44.15;31.30;;;9.00;99.90;;;;;;5001209;28;20121;-72
2023/04/16 00:54:05;;;;;;;45.72;32.17;;;9.00;99.90;;;;;;5008760;28;20382;-72
2023/04/16 00:56:32;;;;;;;50.72;33.22;;;9.10;99.90;;;;;;5004810;28;20065;-72
2023/04/16 00:58:58;;;;;;;52.15;32.38;;;9.10;99.90;;;;;;5004959;28;20507;-72
2023/04/16 01:01:23;;;;;;;47.10;33.22;;;9.10;99.90;;;;;;5005573;28;20073;-72
2023/04/16 01:03:49;;;;;;;50.97;32.80;;;8.90;99.90;;;;;;5002062;28;20072;-72
2023/04/16 01:06:16;;;;;;;50.22;33.63;;;9.10;99.90;;;;;;4993383;28;20038;-72
2023/04/16 01:08:42;;;;;;;48.33;32.45;;;9.10;99.90;;;;;;4998823;28;20022;-71
2023/04/16 01:11:10;;;;;;;49.08;33.88;;;9.00;99.90;;;;;;4999246;28;20063;-71
2023/04/16 01:13:38;;;;;;;50.22;34.97;;;9.10;99.90;;;;;;5003463;28;20112;-72
2023/04/16 01:16:08;;;;;;;49.70;33.67;;;9.10;99.90;;;;;;5003790;28;20109;-72
2023/04/16 01:18:34;;;;;;;47.65;33.92;;;9.10;99.90;;;;;;5001053;28;20037;-72
2023/04/16 01:21:00;;;;;;;50.30;34.00;;;9.20;99.90;;;;;;4999008;28;20551;-72
2023/04/16 01:23:25;;;;;;;49.10;34.22;;;9.10;99.90;;;;;;4998099;28;20134;-72
2023/04/16 01:25:51;;;;;;;51.28;34.17;;;9.10;99.90;;;;;;5001688;28;20394;-71
2023/04/16 01:28:17;;;;;;;52.75;35.38;;;8.30;99.90;;;;;;5003559;28;20121;-71
2023/04/16 01:30:43;;;;;;;49.92;34.30;;;9.10;99.90;;;;;;4998647;28;20375;-72
2023/04/16 01:33:10;;;;;;;47.90;33.22;;;9.10;99.90;;;;;;4998481;28;20062;-71
2023/04/16 01:35:36;;;;;;;50.20;34.90;;;9.10;99.90;;;;;;5002413;28;20064;-72
2023/04/16 01:38:02;;;;;;;50.25;34.50;;;9.10;99.90;;;;;;4999033;28;20053;-72
2023/04/16 01:40:28;;;;;;;52.17;35.10;;;9.10;99.90;;;;;;5007256;28;20619;-71
2023/04/16 01:42:53;;;;;;;49.88;34.38;;;8.90;99.90;;;;;;5002529;28;20026;-71
2023/04/16 01:45:19;;;;;;;52.03;35.00;;;9.10;99.90;;;;;;5004668;28;20040;-71
2023/04/16 01:47:45;;;;;;;53.17;34.00;;;9.10;99.90;;;;;;5004235;28;20088;-72
2023/04/16 01:50:11;;;;;;;52.78;34.78;;;9.10;99.90;;;;;;5001801;28;20038;-71
2023/04/16 01:52:36;;;;;;;53.63;35.63;;;9.10;99.90;;;;;;5004095;28;20663;-72
2023/04/16 01:55:02;;;;;;;56.55;36.88;;;9.00;99.90;;;;;;5005817;28;20029;-71
2023/04/16 01:57:28;;;;;;;54.25;36.10;;;9.00;99.90;;;;;;4997512;28;20088;-72
2023/04/16 01:59:53;;;;;;;56.95;37.65;;;9.00;99.90;;;;;;5002401;28;20083;-72
2023/04/16 02:02:19;;;;;;;58.95;38.17;;;;;;;;;;4997160;28;20038;-71
2023/04/16 02:04:45;;;;;;;57.75;37.42;;;8.90;99.90;;;;;;5009418;28;20030;-72
2023/04/16 02:07:12;;;;;;;61.45;39.55;;;;;;;;;;4995799;28;20044;-72
2023/04/16 02:09:39;;;;;;;57.53;38.03;;;8.90;99.90;;;;;;5001873;28;21072;-71
2023/04/16 02:12:06;;;;;;;63.95;40.08;;;9.00;99.90;;;;;;5002416;28;20033;-72
2023/04/16 02:14:32;;;;;;;60.53;40.33;;;8.90;99.90;;;;;;5007456;28;20033;-72
2023/04/16 02:16:58;;;;;;;62.13;40.85;;;8.90;99.90;;;;;;5000848;28;20049;-72
2023/04/16 02:19:24;;;;;;;66.97;41.42;;;8.90;99.90;;;;;;5002358;28;20030;-72
2023/04/16 02:21:53;;;;;;;64.97;41.65;;;8.90;99.90;;;;;;5000693;28;20100;-71
2023/04/16 02:24:20;;;;;;;62.95;40.60;;;8.90;99.90;;;;;;5000553;28;20156;-71
2023/04/16 02:26:46;;;;;;;59.30;39.72;;;8.90;99.90;;;;;;4996522;28;20485;-71
2023/04/16 02:29:13;;;;;;;61.45;41.17;;;8.90;99.90;;;;;;5004356;28;20081;-71
2023/04/16 02:31:38;;;;;;;60.13;40.70;;;8.90;99.90;;;;;;5000870;28;20049;-71
2023/04/16 02:34:04;;;;;;;64.25;39.75;;;8.90;99.90;;;;;;5002768;28;20080;-73
2023/04/16 02:36:30;;;;;;;62.90;41.03;;;8.80;99.90;;;;;;5003416;28;20022;-71
2023/04/16 02:38:57;;;;;;;62.42;41.00;;;8.80;99.90;;;;;;4996162;28;20022;-70
2023/04/16 02:41:22;;;;;;;61.38;39.28;;;8.80;99.90;;;;;;5003589;28;20069;-70
2023/04/16 02:43:48;;;;;;;60.22;39.60;;;8.80;99.90;;;;;;5004726;28;20029;-71
2023/04/16 02:46:14;;;;;;;62.50;41.50;;;8.80;99.90;;;;;;5004090;28;20050;-71
2023/04/16 02:48:39;;;;;;;58.47;39.35;;;8.80;99.90;;;;;;4999254;28;20037;-73
2023/04/16 02:51:05;;;;;;;61.67;40.15;;;8.80;99.90;;;;;;5004955;28;20049;-72
2023/04/16 02:53:30;;;;;;;62.05;41.03;;;8.80;99.90;;;;;;4998551;28;20164;-71
2023/04/16 02:55:56;;;;;;;62.05;40.58;;;8.70;99.90;;;;;;5002039;28;20078;-72
2023/04/16 02:58:23;;;;;;;65.45;40.65;;;8.70;99.90;;;;;;5005544;28;20120;-72
2023/04/16 03:00:49;;;;;;;59.90;38.58;;;8.70;99.90;;;;;;5000887;28;20049;-72
2023/04/16 03:03:15;;;;;;;62.67;40.83;;;8.70;99.90;;;;;;5005717;28;20025;-73
2023/04/16 03:05:41;;;;;;;60.90;38.80;;;8.70;99.90;;;;;;5001291;28;20030;-72
2023/04/16 03:08:07;;;;;;;52.15;36.22;;;8.70;99.90;;;;;;5004748;28;20038;-73
2023/04/16 03:10:34;;;;;;;52.85;35.78;;;8.70;99.90;;;;;;5006721;28;20027;-72
2023/04/16 03:13:00;;;;;;;51.97;34.53;;;8.60;99.90;;;;;;5002585;28;20130;-73
2023/04/16 03:15:26;;;;;;;52.38;36.33;;;8.70;99.90;;;;;;5004075;28;20110;-72
2023/04/16 03:17:52;;;;;;;48.53;33.80;;;8.70;99.90;;;;;;5004631;28;20030;-72
2023/04/16 03:20:18;;;;;;;50.25;33.88;;;8.70;99.90;;;;;;5004892;28;20092;-72
2023/04/16 03:22:44;;;;;;;46.97;32.47;;;8.70;99.90;;;;;;5008425;28;20432;-72
2023/04/16 03:25:10;;;;;;;39.38;28.75;;;8.70;99.90;;;;;;5003229;28;20113;-72
2023/04/16 03:27:36;;;;;;;34.53;25.98;;;8.70;99.90;;;;;;5004989;28;20116;-72
2023/04/16 03:30:02;;;;;;;36.65;26.50;;;8.70;99.90;;;;;;5005882;28;20448;-72
2023/04/16 03:32:27;;;;;;;33.67;24.77;;;8.70;99.90;;;;;;5003271;28;20546;-72
2023/04/16 03:34:53;;;;;;;36.85;24.95;;;8.70;99.90;;;;;;5004476;28;20038;-73
2023/04/16 03:37:18;;;;;;;34.63;24.60;;;8.70;99.90;;;;;;5007743;28;20037;-72
2023/04/16 03:39:44;;;;;;;31.38;23.50;;;8.70;99.90;;;;;;5000419;28;20030;-73
2023/04/16 03:42:10;;;;;;;32.80;24.63;;;8.70;99.90;;;;;;5005472;28;20041;-73
2023/04/16 03:44:35;;;;;;;33.72;23.45;;;8.80;99.90;;;;;;5002293;28;20034;-72
2023/04/16 03:47:01;;;;;;;33.50;24.38;;;8.80;99.90;;;;;;5004140;28;20034;-72
2023/04/16 03:49:26;;;;;;;35.20;24.98;;;8.80;99.90;;;;;;5006540;28;20026;-73
2023/04/16 03:51:52;;;;;;;36.42;26.88;;;;;;;;;;5008477;28;20040;-72
2023/04/16 03:54:18;;;;;;;35.03;25.52;;;8.80;99.90;;;;;;5004642;28;20019;-72
2023/04/16 03:56:44;;;;;;;38.00;26.20;;;8.80;99.90;;;;;;5002456;28;20516;-72
2023/04/16 03:59:09;;;;;;;37.03;27.33;;;8.90;99.90;;;;;;5004670;28;20040;-71
2023/04/16 04:01:35;;;;;;;38.85;28.25;;;8.90;99.90;;;;;;4990149;28;20030;-71
2023/04/16 04:04:01;;;;;;;41.15;28.13;;;8.90;99.90;;;;;;5005650;28;20078;-72
2023/04/16 04:06:26;;;;;;;45.72;31.50;;;8.80;99.90;;;;;;5004562;28;20033;-71
2023/04/16 04:08:52;;;;;;;40.60;29.45;;;8.80;99.90;;;;;;5004977;28;20029;-72
2023/04/16 04:11:18;;;;;;;51.35;35.55;;;8.80;99.90;;;;;;5003572;28;20034;-72
2023/04/16 04:13:44;;;;;;;55.22;35.28;;;8.80;99.90;;;;;;5006006;28;20026;-72
2023/04/16 04:16:10;;;;;;;57.08;37.53;;;8.80;99.90;;;;;;5003742;28;20130;-72
2023/04/16 04:18:36;;;;;;;57.03;38.40;;;8.80;99.90;;;;;;5000426;28;20056;-72
2023/04/16 04:21:08;;;;;;;61.42;40.58;;;8.80;99.90;;;;;;5007918;28;20030;-72
2023/04/16 04:23:36;;;;;;;60.15;40.03;;;8.80;99.90;;;;;;5004714;28;20036;-72
2023/04/16 04:26:04;;;;;;;64.65;42.67;;;8.80;99.90;;;;;;5003266;28;20030;-72
2023/04/16 04:28:30;;;;;;;63.83;41.65;;;8.80;99.90;;;;;;5001657;28;20037;-72
2023/04/16 04:30:59;;;;;;;63.30;41.42;;;8.80;99.90;;;;;;5003762;28;20061;-72
2023/04/16 04:33:25;;;;;;;68.75;44.72;;;8.80;99.90;;;;;;5001272;28;20036;-72
2023/04/16 04:35:51;;;;;;;65.10;43.58;;;8.80;99.90;;;;;;5006111;28;20030;-73
2023/04/16 04:38:21;;;;;;;64.80;43.80;;;8.80;99.90;;;;;;5005093;28;20026;-72
2023/04/16 04:40:52;;;;;;;67.00;43.60;;;8.30;99.90;;;;;;5003195;28;20588;-72
2023/04/16 04:43:21;;;;;;;71.63;44.80;;;8.80;99.90;;;;;;5001241;28;20041;-71
2023/04/16 04:45:48;;;;;;;66.40;42.88;;;;;;;;;;5005044;28;20514;-72
2023/04/16 04:48:14;;;;;;;72.40;43.70;;;;;;;;;;4997042;28;20029;-72
2023/04/16 04:50:40;;;;;;;62.17;43.28;;;8.80;99.90;;;;;;5007392;28;20076;-72
2023/04/16 04:53:09;;;;;;;61.92;42.05;;;8.80;99.90;;;;;;5005125;28;20026;-73
2023/04/16 04:55:38;;;;;;;61.05;41.60;;;8.80;99.90;;;;;;5005322;28;20030;-72
2023/04/16 04:58:05;;;;;;;63.80;41.00;;;8.70;99.90;;;;;;5002659;28;20038;-72
2023/04/16 05:00:31;;;;;;;54.70;39.03;;;8.80;99.90;;;;;;5007065;28;20065;-73
2023/04/16 05:02:57;;;;;;;54.20;37.92;;;8.80;99.90;;;;;;5001270;28;20038;-73
2023/04/16 05:05:22;;;;;;;56.78;37.70;;;8.80;99.90;;;;;;5006196;28;20026;-72
2023/04/16 05:07:48;;;;;;;52.95;37.53;;;8.80;99.90;;;;;;5002411;28;20474;-72
2023/04/16 05:10:13;;;;;;;54.80;36.95;;;8.80;99.90;;;;;;5002906;28;20198;-71
2023/04/16 05:12:39;;;;;;;51.33;36.58;;;8.80;99.90;;;;;;5003808;28;20109;-71
2023/04/16 05:15:05;;;;;;;52.75;37.10;;;8.80;99.90;;;;;;5003500;28;20061;-71
2023/04/16 05:17:31;;;;;;;52.10;36.50;;;8.90;99.90;;;;;;5008672;28;20041;-71
2023/04/16 05:19:56;;;;;;;57.35;38.05;;;8.90;99.90;;;;;;5009195;28;20497;-71
2023/04/16 05:22:22;;;;;;;49.80;35.45;;;8.90;99.90;;;;;;5009333;28;20021;-72
2023/04/16 05:24:47;;;;;;;60.05;38.33;;;8.80;99.90;;;;;;5011091;28;20156;-71
2023/04/16 05:27:13;;;;;;;54.85;36.05;;;8.80;99.90;;;;;;5008666;28;20065;-72
2023/04/16 05:29:38;;;;;;;49.33;33.75;;;8.90;99.90;;;;;;5005549;28;20441;-72
2023/04/16 05:32:04;;;;;;;54.00;35.22;;;8.90;99.90;;;;;;5008672;28;20046;-71
2023/04/16 05:34:30;;;;;;;47.70;32.85;;;8.90;99.90;;;;;;5003974;28;20034;-72
2023/04/16 05:36:55;;;;;;;48.75;33.65;;;8.90;99.90;;;;;;5008444;28;20080;-72
2023/04/16 05:39:21;;;;;;;45.15;33.03;;;8.90;99.90;;;;;;5005064;28;20026;-72
2023/04/16 05:41:46;;;;;;;49.88;34.17;;;9.00;99.90;;;;;;5007520;28;20169;-72
2023/04/16 05:44:14;;;;;;;48.97;34.25;;;9.00;99.90;;;;;;5007767;28;20094;-72
2023/04/16 05:46:39;;;;;;;52.70;34.67;;;9.00;99.90;;;;;;5009142;28;20065;-72
2023/04/16 05:49:05;;;;;;;52.92;37.08;;;9.00;99.90;;;;;;5010771;28;20034;-72
2023/04/16 05:51:31;;;;;;;54.75;35.53;;;9.00;99.90;;;;;;5007221;28;20345;-72
2023/04/16 05:53:56;;;;;;;52.55;37.03;;;9.00;99.90;;;;;;5002990;28;20054;-72
2023/04/16 05:56:22;;;;;;;50.53;35.80;;;9.00;99.90;;;;;;5001233;28;20022;-72
2023/04/16 05:58:48;;;;;;;53.38;35.55;;;;;;;;;;4999823;28;20120;-72
2023/04/16 06:01:13;;;;;;;51.70;35.70;;;9.00;99.90;;;;;;5004940;28;20098;-72
2023/04/16 06:03:39;;;;;;;54.13;35.80;;;9.00;99.90;;;;;;5008936;28;20133;-73
2023/04/16 06:06:05;;;;;;;50.15;34.60;;;9.00;99.90;;;;;;4997136;28;20034;-72
2023/04/16 06:08:30;;;;;;;50.03;34.97;;;9.00;99.90;;;;;;4998027;28;20164;-71
2023/04/16 06:10:56;;;;;;;48.97;34.33;;;9.00;99.90;;;;;;4993193;28;20061;-72
2023/04/16 06:13:22;;;;;;;45.83;32.72;;;9.00;99.90;;;;;;4998618;28;20040;-71
2023/04/16 06:15:48;;;;;;;47.03;33.55;;;;;;;;;;5002888;28;20056;-72
2023/04/16 06:18:13;;;;;;;47.58;32.88;;;8.90;99.90;;;;;;4995594;28;20033;-71
2023/04/16 06:20:39;;;;;;;48.90;33.55;;;8.90;99.90;;;;;;5000552;28;20025;-70
2023/04/16 06:23:04;;;;;;;49.97;35.35;;;8.90;99.90;;;;;;4298828;28;10000811;-71
2023/04/16 06:25:30;;;;;;;50.22;33.38;;;8.90;99.90;;;;;;4966650;28;20066;-71
2023/04/16 06:27:56;;;;;;;51.83;34.17;;;8.90;99.90;;;;;;4969514;28;20418;-71
2023/04/16 06:30:21;;;;;;;47.03;33.10;;;8.90;99.90;;;;;;4973718;28;20117;-71
2023/04/16 06:32:48;;;;;;;48.47;34.70;;;8.90;99.90;;;;;;4975479;28;20388;-71
2023/04/16 06:35:13;;;;;;;53.90;35.03;;;8.90;99.90;;;;;;4966729;28;20034;-71
2023/04/16 06:37:39;;;;;;;50.65;35.70;;;8.90;99.90;;;;;;4979970;28;20057;-70
2023/04/16 06:40:05;;;;;;;54.17;37.00;;;8.90;99.90;;;;;;4975126;28;20465;-71
2023/04/16 06:42:31;;;;;;;50.05;35.13;;;8.90;99.90;;;;;;4972266;28;20098;-71
2023/04/16 06:44:56;;;;;;;48.60;34.90;;;8.90;99.90;;;;;;4966568;28;20030;-71
2023/04/16 06:47:22;;;;;;;51.60;35.25;;;8.90;99.90;;;;;;4978328;28;20034;-71
2023/04/16 06:49:47;;;;;;;50.85;35.20;;;8.80;99.90;;;;;;4975221;28;20608;-71
2023/04/16 06:52:13;;;;;;;51.38;34.38;;;8.80;99.90;;;;;;4982968;28;20145;-71
2023/04/16 06:54:38;;;;;;;53.92;34.90;;;8.80;99.90;;;;;;4980674;28;20611;-71
2023/04/16 06:57:04;;;;;;;52.20;35.15;;;8.90;99.90;;;;;;5001127;28;20051;-71
2023/04/16 06:59:30;;;;;;;49.70;34.13;;;8.90;99.90;;;;;;4993210;28;20057;-72
2023/04/16 07:01:56;;;;;;;49.30;35.25;;;8.90;99.90;;;;;;4993489;28;20045;-71
2023/04/16 07:04:22;;;;;;;50.05;36.03;;;8.90;99.90;;;;;;4988774;28;20574;-72
2023/04/16 07:06:48;;;;;;;49.45;34.60;;;8.90;99.90;;;;;;4995425;28;20033;-71
2023/04/16 07:09:14;;;;;;;48.58;34.85;;;8.90;99.90;;;;;;4992429;28;20477;-72
2023/04/16 07:11:40;;;;;;;51.40;34.13;;;8.80;99.90;;;;;;4997166;28;20137;-71
2023/04/16 07:14:06;;;;;;;51.90;34.65;;;8.90;99.90;;;;;;4994914;28;20022;-71
2023/04/16 07:16:31;;;;;;;52.83;36.45;;;8.80;99.90;;;;;;4997902;28;20569;-71
2023/04/16 07:18:57;;;;;;;50.72;35.67;;;8.80;99.90;;;;;;4994741;28;20037;-71
2023/04/16 07:21:22;;;;;;;49.55;33.70;;;8.80;99.90;;;;;;4998651;28;20113;-71
2023/04/16 07:23:48;;;;;;;48.47;35.53;;;8.80;99.90;;;;;;4991467;28;20792;-71
2023/04/16 07:26:14;;;;;;;49.65;34.65;;;8.80;99.90;;;;;;4993238;28;20491;-72
2023/04/16 07:28:39;;;;;;;52.55;36.03;;;8.80;99.90;;;;;;5000066;28;20022;-72
2023/04/16 07:31:05;;;;;;;47.13;33.38;;;;;;;;;;4997147;28;20044;-73
2023/04/16 07:33:31;;;;;;;49.60;35.33;;;8.80;99.90;;;;;;5005035;28;20104;-73
2023/04/16 07:35:56;;;;;;;50.63;35.55;;;8.80;99.90;;;;;;5007336;28;20489;-74
2023/04/16 07:38:22;;;;;;;50.40;35.97;;;8.80;99.90;;;;;;5006481;28;20299;-73
2023/04/16 07:40:47;;;;;;;54.55;35.70;;;8.80;99.90;;;;;;5008374;28;20028;-73
2023/04/16 07:43:15;;;;;;;49.53;35.10;;;8.70;99.90;;;;;;5008804;28;20072;-74
2023/04/16 07:45:40;;;;;;;48.33;34.10;;;8.80;99.90;;;;;;5008043;28;20119;-73
2023/04/16 07:48:06;;;;;;;48.03;33.38;;;8.80;99.90;;;;;;5001724;28;20544;-73
2023/04/16 07:50:32;;;;;;;52.78;35.28;;;8.70;99.90;;;;;;5007621;28;20041;-73
2023/04/16 07:52:57;;;;;;;51.22;35.13;;;8.80;99.90;;;;;;5005222;28;20018;-73
2023/04/16 07:55:23;;;;;;;49.88;34.42;;;8.70;99.90;;;;;;5006337;28;20536;-73
2023/04/16 07:57:48;;;;;;;48.28;34.13;;;8.70;99.90;;;;;;5008495;28;20030;-74
2023/04/16 08:00:14;;;;;;;51.38;35.50;;;8.70;99.90;;;;;;5005590;28;20474;-73
2023/04/16 08:02:40;;;;;;;48.88;34.00;;;8.70;99.90;;;;;;5005802;28;20049;-73
2023/04/16 08:05:06;;;;;;;48.80;33.58;;;8.70;99.90;;;;;;5005075;28;20480;-73
2023/04/16 08:07:32;;;;;;;46.08;32.65;;;8.70;99.90;;;;;;5001369;28;20030;-73
2023/04/16 08:09:57;;;;;;;50.78;35.22;;;8.70;99.90;;;;;;4993637;28;20377;-73
2023/04/16 08:12:23;;;;;;;46.75;33.67;;;8.70;99.90;;;;;;5002368;28;20175;-73
2023/04/16 08:14:49;;;;;;;50.13;33.75;;;8.70;99.90;;;;;;5008045;28;20378;-73
2023/04/16 08:17:15;;;;;;;47.42;32.35;;;8.70;99.90;;;;;;5001996;28;20481;-72
2023/04/16 08:19:42;;;;;;;50.03;35.22;;;8.60;99.90;;;;;;5003174;28;20038;-73
2023/04/16 08:22:08;;;;;;;48.45;33.33;;;8.60;99.90;;;;;;5001856;28;20781;-73
2023/04/16 08:24:33;;;;;;;50.03;33.53;;;8.60;99.90;;;;;;5003653;28;20033;-72
2023/04/16 08:26:59;;;;;;;51.00;34.38;;;8.60;99.90;;;;;;5006255;28;20025;-73
2023/04/16 08:29:25;;;;;;;48.05;32.90;;;8.60;99.90;;;;;;5000426;28;20537;-73
2023/04/16 08:31:51;;;;;;;50.55;33.08;;;8.60;99.90;;;;;;4995191;28;20029;-73
2023/04/16 08:34:17;;;;;;;47.78;31.83;;;8.60;99.90;;;;;;5004065;28;20038;-73
2023/04/16 08:36:42;;;;;;;50.50;33.90;;;8.60;99.90;;;;;;4992447;28;20041;-73
2023/04/16 08:39:08;;;;;;;51.67;34.58;;;8.60;99.90;;;;;;4988732;28;20368;-73
2023/04/16 08:41:36;;;;;;;51.50;34.83;;;8.50;99.90;;;;;;5004406;28;20025;-73
2023/04/16 08:44:08;;;;;;;53.22;33.80;;;8.50;99.90;;;;;;5007766;28;20022;-73
2023/04/16 08:46:36;;;;;;;52.08;34.92;;;8.50;99.90;;;;;;5000118;28;20050;-73
2023/04/16 08:49:05;;;;;;;51.13;33.47;;;8.50;99.90;;;;;;5005539;28;20701;-72
2023/04/16 08:51:34;;;;;;;53.88;34.10;;;8.50;99.90;;;;;;5004602;28;20026;-72
2023/04/16 08:54:03;;;;;;;50.22;33.78;;;8.50;99.90;;;;;;5008032;28;20120;-72
2023/04/16 08:56:31;;;;;;;52.35;34.15;;;;;;;;;;5006317;28;20350;-72
2023/04/16 08:58:57;;;;;;;52.88;33.47;;;8.50;99.90;;;;;;5004424;28;20041;-72
2023/04/16 09:01:25;;;;;;;56.85;34.88;;;8.40;99.90;;;;;;4998581;28;20145;-72
2023/04/16 09:03:52;;;;;;;53.67;34.45;;;8.30;99.90;;;;;;4990855;28;20545;-73
2023/04/16 09:06:18;;;;;;;56.00;34.13;;;8.50;99.90;;;;;;4993164;28;20060;-73
2023/04/16 09:08:45;;;;;;;51.55;34.10;;;8.40;99.90;;;;;;5008149;28;20030;-73
2023/04/16 09:11:11;;;;;;;56.10;33.58;;;;;;;;;;4999202;28;20109;-73
2023/04/16 09:13:37;;;;;;;54.42;34.88;;;8.30;99.90;;;;;;4995779;28;20027;-73
2023/04/16 09:16:03;;;;;;;51.10;34.22;;;8.30;99.90;;;;;;4993018;28;20282;-73
2023/04/16 09:18:29;;;;;;;50.63;33.05;;;8.30;99.90;;;;;;4988507;28;20042;-73
2023/04/16 09:20:56;;;;;;;50.63;33.13;;;8.40;99.90;;;;;;4995112;28;20372;-73
2023/04/16 09:23:21;;;;;;;48.95;31.63;;;8.40;99.90;;;;;;5007561;28;20022;-73
2023/04/16 09:25:47;;;;;;;48.40;30.73;;;8.40;99.90;;;;;;5001554;28;20311;-73
2023/04/16 09:28:38;;;;;;;48.83;31.08;;;8.40;99.90;;;;;;5000296;28;20539;-72
2023/04/16 09:31:15;;;;;;;49.88;31.05;;;8.40;99.90;;;;;;4992430;28;20075;-73
2023/04/16 09:33:42;;;;;;;51.60;32.50;;;8.40;99.90;;;;;;4998054;28;20021;-73
2023/04/16 09:36:08;;;;;;;53.20;33.63;;;;;;;;;;5007880;28;20030;-73
2023/04/16 09:38:50;;;;;;;56.42;33.80;;;;;;;;;;4992496;28;20035;-73
2023/04/16 09:41:16;;;;;;;56.80;34.58;;;;;;;;;;5002301;28;20030;-73
2023/04/16 09:43:56;;;;;;;53.38;33.75;;;8.30;99.90;;;;;;5001489;28;20490;-72
2023/04/16 09:46:23;;;;;;;59.95;34.33;;;8.30;99.90;;;;;;5000737;28;20068;-73
2023/04/16 09:48:49;;;;;;;58.47;34.70;;;8.30;99.90;;;;;;5010720;28;20049;-73
2023/04/16 09:51:15;;;;;;;54.55;34.05;;;8.40;99.90;;;;;;5008870;28;20064;-73
2023/04/16 09:53:41;;;;;;;53.10;32.63;;;8.40;99.90;;;;;;4994273;28;20385;-73
2023/04/16 09:56:07;;;;;;;59.08;31.98;;;8.40;99.90;;;;;;5006931;28;20223;-73
2023/04/16 09:58:35;;;;;;;54.38;31.95;;;8.50;99.90;;;;;;5010510;28;20393;-74
2023/04/16 10:01:02;;;;;;;50.17;31.65;;;8.50;99.90;;;;;;5008250;28;20500;-74
2023/04/16 10:03:31;;;;;;;50.72;31.20;;;;;;;;;;5004815;28;20494;-74
2023/04/16 10:06:08;;;;;;;52.38;32.28;;;;;;;;;;5010312;28;20049;-72
2023/04/16 10:08:33;;;;;;;52.90;31.90;;;8.40;99.90;;;;;;5010602;28;20056;-73
2023/04/16 10:11:00;;;;;;;52.38;31.83;;;;;;;;;;5004720;28;21830;-74
2023/04/16 10:13:29;;;;;;;49.47;31.20;;;8.50;99.90;;;;;;4984665;28;20463;-74
2023/04/16 10:15:56;;;;;;;48.13;30.52;;;8.60;99.90;;;;;;4993871;28;20038;-74
2023/04/16 10:18:22;;;;;;;47.03;29.67;;;8.60;99.90;;;;;;5004388;28;20025;-74
2023/04/16 10:20:49;;;;;;;47.05;30.33;;;8.70;99.90;;;;;;4996983;28;20037;-74
2023/04/16 10:23:15;;;;;;;44.25;28.60;;;8.80;99.90;;;;;;4992521;28;20038;-74
2023/04/16 10:25:42;;;;;;;44.05;29.23;;;9.00;99.90;;;;;;4996361;28;20077;-74
2023/04/16 10:28:08;;;;;;;50.33;30.60;;;9.00;99.90;;;;;;5005934;28;20153;-74
2023/04/16 10:30:35;;;;;;;46.38;30.13;;;;;;;;;;5008371;28;20034;-74
2023/04/16 10:33:03;;;;;;;45.45;29.05;;;8.90;99.90;;;;;;4992820;28;20042;-74
2023/04/16 10:35:29;;;;;;;42.60;27.98;;;;;;;;;;4990171;28;20033;-75
2023/04/16 10:37:56;;;;;;;44.35;30.00;;;9.00;99.90;;;;;;4994158;28;20121;-74
2023/04/16 10:40:24;;;;;;;44.78;28.52;;;9.10;99.90;;;;;;4991682;28;20026;-74
2023/04/16 10:42:57;;;;;;;41.67;28.48;;;9.10;99.90;;;;;;4996954;28;20034;-74
2023/04/16 10:45:36;;;;;;;;;;;9.10;99.90;;;;;;5004270;28;20104;-75
2023/04/16 10:48:07;;;;;;;40.80;26.30;;;9.10;99.90;;;;;;4995567;28;19929;-74
2023/04/16 10:50:36;;;;;;;37.55;26.27;;;9.20;99.90;;;;;;5004775;28;20506;-74
2023/04/16 10:53:28;;;;;;;40.85;26.13;;;9.20;99.90;;;;;;5004929;28;20034;-74
2023/04/16 10:56:11;;;;;;;39.38;26.35;;;9.20;99.90;;;;;;4993843;28;20030;-74
2023/04/16 10:58:37;;;;;;;40.30;28.08;;;9.30;99.90;;;;;;5005694;28;20038;-74
2023/04/16 11:01:13;;;;;;;39.53;27.20;;;9.30;99.90;;;;;;4998579;28;20094;-74
2023/04/16 11:03:43;;;;;;;36.90;25.75;;;9.40;99.90;;;;;;4993856;28;20022;-73
2023/04/16 11:06:13;;;;;;;38.65;26.98;;;9.40;99.90;;;;;;5001626;28;20117;-74
2023/04/16 11:08:42;;;;;;;37.03;26.05;;;9.40;99.90;;;;;;4996497;28;20450;-74
2023/04/16 11:11:08;;;;;;;38.60;26.13;;;9.50;99.90;;;;;;4998638;28;20056;-73
2023/04/16 11:13:36;;;;;;;37.05;25.63;;;9.50;99.90;;;;;;4996680;28;20490;-74
2023/04/16 11:16:02;;;;;;;37.58;25.30;;;9.50;99.90;;;;;;5000320;28;20125;-74
2023/04/16 11:18:28;;;;;;;36.17;25.08;;;9.50;99.90;;;;;;4993118;28;20034;-74
2023/04/16 11:20:54;;;;;;;37.05;25.15;;;9.60;99.90;;;;;;4996924;28;20030;-74
2023/04/16 11:23:19;;;;;;;36.60;25.08;;;9.60;99.90;;;;;;5003341;28;20030;-75
2023/04/16 11:25:45;;;;;;;34.38;24.05;;;9.60;99.90;;;;;;4989652;28;20567;-74
2023/04/16 11:28:10;;;;;;;34.65;25.02;;;9.60;99.90;;;;;;4996858;28;20033;-75
2023/04/16 11:30:37;;;;;;;39.15;25.20;;;9.60;99.90;;;;;;4996911;28;20239;-74
2023/04/16 11:33:10;;;;;;;36.53;25.40;;;;;;;;;;4996858;28;20026;-74
2023/04/16 11:35:40;;;;;;;34.15;24.55;;;9.50;99.90;;;;;;4993269;28;20029;-74
2023/04/16 11:38:06;;;;;;;34.47;24.17;;;9.50;99.90;;;;;;4998878;28;20091;-74
2023/04/16 11:40:32;;;;;;;34.63;24.70;;;9.50;99.90;;;;;;4998087;28;20029;-74
2023/04/16 11:43:25;;;;;;;33.10;24.25;;;9.50;99.90;;;;;;4992349;28;20026;-74
2023/04/16 11:46:04;;;;;;;36.30;24.92;;;9.50;99.90;;;;;;4994587;28;20088;-74
2023/04/16 11:48:51;;;;;;;36.80;24.98;;;9.50;99.90;;;;;;4986520;28;20125;-74
2023/04/16 11:51:17;;;;;;;37.95;24.33;;;9.50;99.90;;;;;;4994570;28;20119;-74
2023/04/16 11:53:51;;;;;;;33.70;23.75;;;9.50;99.90;;;;;;5005336;28;20489;-75
2023/04/16 11:56:27;;;;;;;34.00;24.05;;;9.50;99.90;;;;;;5003054;28;20028;-74
2023/04/16 11:59:16;;;;;;;35.53;23.88;;;9.50;99.90;;;;;;4998824;28;20014;-74
2023/04/16 12:01:46;;;;;;;36.03;23.42;;;9.50;99.90;;;;;;5001371;28;20026;-75
2023/04/16 12:04:14;;;;;;;39.55;26.25;;;9.60;99.90;;;;;;4997381;28;20116;-74
2023/04/16 12:06:40;;;;;;;40.05;25.98;;;9.60;99.90;;;;;;4998907;28;20030;-74
2023/04/16 12:09:25;;;;;;;39.38;26.48;;;9.60;99.90;;;;;;5003503;28;20037;-74
2023/04/16 12:11:52;;;;;;;42.05;28.10;;;9.60;99.90;;;;;;4985968;28;20323;-74
2023/04/16 12:14:18;;;;;;;42.47;28.65;;;9.60;99.90;;;;;;4985883;28;20022;-75
2023/04/16 12:16:43;;;;;;;46.88;29.52;;;9.60;99.90;;;;;;5003452;28;20424;-74
2023/04/16 12:19:11;;;;;;;45.05;30.55;;;9.70;99.90;;;;;;4650370;28;10000259;-75
2023/04/16 12:21:38;;;;;;;44.35;30.33;;;9.70;99.90;;;;;;4988223;28;20474;-74
2023/04/16 12:24:05;;;;;;;43.33;29.45;;;9.70;99.90;;;;;;4997945;28;20147;-74
2023/04/16 12:26:37;;;;;;;50.50;32.20;;;9.70;99.90;;;;;;4988722;28;20225;-73
2023/04/16 12:29:20;;;;;;;46.45;31.65;;;9.70;99.90;;;;;;4994147;28;20118;-75
2023/04/16 12:31:47;;;;;;;36.92;24.33;;;9.70;99.90;;;;;;4997193;28;20030;-74
2023/04/16 12:34:16;;;;;;;46.78;32.10;;;9.70;99.90;;;;;;4996535;28;20037;-74
2023/04/16 12:36:43;;;;;;;45.67;31.35;;;9.70;99.90;;;;;;4996283;28;20168;-74
2023/04/16 12:39:10;;;;;;;44.95;31.02;;;9.80;99.90;;;;;;4988573;28;20049;-74
2023/04/16 12:41:37;;;;;;;47.72;31.88;;;9.70;99.90;;;;;;4987897;28;20160;-73